Main page
METAR-TAF:

METAR-TAF

Airports :

Campbeltown Airport

Campbeltown, Scotland

latitude: 55-26-14N, longitude: 005-41-11W, elevation: 13 m

Current weather observation

The report was made 11 hours and 45 minutes ago, at 16:50 UTC
Wind 3 kt from the South
Temperature 16°C
Humidity 82%
Pressure 1005 hPa
Visibility 10 km or more
no clouds below 1500 m and no cumulonimbus

METAR: EGEC 151650Z 18003KT CAVOK 16/13 Q1005

Time: 05:35 (04:35 UTC)

Forecast

The report was made 14 hours and 33 minutes ago, at 14:02 UTC
Forecast valid from 15 at 15 UTC to 15 at 18 UTC
Wind 6 kt from the West/Northwest
Visibility 10 km or more
Few clouds at a height of 1000 ft
Becoming
from 15 at 15 UTC to 15 at 17 UTC
Wind 10 kt from the Southwest
Probability 40% :
Temporary
from 15 at 15 UTC to 15 at 18 UTC
Wind 15 kt from the Southwest with gusts up to 25 kt
Visibility: 7000 m
Broken clouds at a height of 900 ft
rain

TAF: EGEC 151402Z 1515/1518 30006KT 9999 FEW010 BECMG 1515/1517 23010KT PROB40 TEMPO 1515/1518 23015G25KT 7000 RA BKN009

Weather observations and forecasts of more than 4000 airports (METAR and TAF reports).

The available stations are represented by yellow and red dots on the map.

Hover mouse over dot to see the name of the station.

Then click to see weather observations and forecasts.

To change the map : click on the green buttons with a black cross to zoom in, on the green button with a dash to zoom out, or on the green arrows for adjacent maps.


METAR-TAF: